Time;durP1;ratioP1;P1;durP2;ratioP2;P2;SDS_P1;SDS_P2;PMS_P1;PMS_P2;Temp;Humidity;BMP_temperature;BMP_pressure;BME280_temperature;BME280_humidity;BME280_pressure;Samples;Min_cycle;Max_cycle;Signal;HPM_P1;HPM_P2
2022/06/08 00:02:08;;;;;;;159.13;150.85;;;9.80;99.90;;;;;;5114030;28;20043;-62
2022/06/08 00:04:34;;;;;;;156.52;148.23;;;9.70;99.90;;;;;;5115021;28;20050;-62
2022/06/08 00:07:00;;;;;;;148.13;140.93;;;9.70;99.90;;;;;;5114508;28;20047;-62
2022/06/08 00:09:26;;;;;;;136.15;129.68;;;9.80;99.90;;;;;;5113765;28;20040;-62
2022/06/08 00:11:52;;;;;;;159.13;150.18;;;9.80;99.90;;;;;;5114425;28;20490;-62
2022/06/08 00:14:18;;;;;;;138.27;130.35;;;9.80;99.90;;;;;;5093655;28;20109;-62
2022/06/08 00:16:44;;;;;;;161.30;152.20;;;9.90;99.90;;;;;;5105832;28;20043;-62
2022/06/08 00:19:10;;;;;;;154.73;146.30;;;9.90;99.90;;;;;;5114321;28;20032;-62
2022/06/08 00:21:36;;;;;;;166.10;157.00;;;9.90;99.90;;;;;;5114691;28;20044;-61
2022/06/08 00:24:02;;;;;;;162.18;153.30;;;9.80;99.90;;;;;;5112323;28;20478;-62
2022/06/08 00:26:28;;;;;;;155.95;147.77;;;9.90;99.90;;;;;;5114096;27;20470;-62
2022/06/08 00:28:54;;;;;;;145.38;137.73;;;9.80;99.90;;;;;;5112488;28;20071;-62
2022/06/08 00:31:20;;;;;;;211.13;198.57;;;9.80;99.90;;;;;;5112810;28;20048;-62
2022/06/08 00:33:48;;;;;;;143.93;136.15;;;9.80;99.90;;;;;;5104868;28;20063;-62
2022/06/08 00:36:14;;;;;;;144.88;137.55;;;9.80;99.90;;;;;;5093078;28;20495;-61
2022/06/08 00:38:40;;;;;;;184.32;174.60;;;9.80;99.90;;;;;;5092440;28;20119;-61
2022/06/08 00:41:22;;;;;;;182.40;173.02;;;9.80;99.90;;;;;;5093743;28;20490;-61
2022/06/08 00:43:48;;;;;;;182.35;172.55;;;9.70;99.90;;;;;;5102004;28;20086;-62
2022/06/08 00:46:15;;;;;;;148.50;140.38;;;9.70;99.90;;;;;;5112270;28;20100;-61
2022/06/08 00:48:47;;;;;;;182.07;172.55;;;9.70;99.90;;;;;;5114031;28;20075;-62
2022/06/08 00:51:13;;;;;;;191.98;181.57;;;9.60;99.90;;;;;;5111873;28;20039;-61
2022/06/08 00:53:44;;;;;;;206.35;195.68;;;9.70;99.90;;;;;;5113554;28;20130;-61
2022/06/08 00:56:15;;;;;;;173.45;164.80;;;9.60;99.90;;;;;;5113978;28;20051;-62
2022/06/08 00:58:41;;;;;;;141.07;133.93;;;9.60;99.90;;;;;;5111800;28;20077;-61
2022/06/08 01:01:08;;;;;;;167.60;158.63;;;9.60;99.90;;;;;;5113259;28;20036;-61
2022/06/08 01:03:34;;;;;;;200.98;189.70;;;9.80;99.90;;;;;;5095376;28;20052;-61
2022/06/08 01:06:04;;;;;;;215.32;203.77;;;9.80;99.90;;;;;;5094720;28;20063;-61
2022/06/08 01:08:38;;;;;;;187.23;176.52;;;9.80;99.90;;;;;;5111682;28;20075;-61
2022/06/08 01:11:23;;;;;;;164.70;155.82;;;9.90;99.90;;;;;;5111536;28;20071;-61
2022/06/08 01:13:52;;;;;;;143.50;135.35;;;9.80;99.90;;;;;;5110804;28;20044;-61
2022/06/08 01:16:18;;;;;;;175.13;165.57;;;9.90;99.90;;;;;;5112007;28;20141;-61
2022/06/08 01:18:45;;;;;;;196.90;185.75;;;9.80;99.90;;;;;;5111522;28;20052;-61
2022/06/08 01:21:20;;;;;;;170.77;162.05;;;9.80;99.90;;;;;;5112504;28;20177;-61
2022/06/08 01:23:51;;;;;;;175.80;166.43;;;9.90;99.90;;;;;;5111904;28;20439;-62
2022/06/08 01:26:29;;;;;;;191.68;182.27;;;9.90;99.90;;;;;;5110940;28;20043;-61
2022/06/08 01:29:01;;;;;;;187.05;177.68;;;9.90;99.90;;;;;;5113413;28;20055;-62
2022/06/08 01:31:34;;;;;;;208.00;197.93;;;9.80;99.90;;;;;;5111874;28;20048;-61
2022/06/08 01:34:05;;;;;;;134.13;127.78;;;9.80;99.90;;;;;;5112507;28;20482;-62
2022/06/08 01:36:59;;;;;;;242.10;228.80;;;9.80;99.90;;;;;;5111671;28;20126;-61
2022/06/08 01:39:52;;;;;;;124.97;119.20;;;9.80;99.90;;;;;;5094228;28;20103;-61
2022/06/08 01:42:37;;;;;;;107.97;102.60;;;9.70;99.90;;;;;;5111975;28;20062;-61
2022/06/08 01:45:33;;;;;;;142.63;135.40;;;9.70;99.90;;;;;;5111553;28;20047;-61
2022/06/08 01:48:14;;;;;;;100.38;93.97;;;9.70;99.90;;;;;;5115364;28;20079;-61
2022/06/08 01:50:57;;;;;;;110.18;104.18;;;9.70;99.90;;;;;;5116459;28;20046;-61
2022/06/08 01:53:41;;;;;;;111.35;105.55;;;9.70;99.90;;;;;;5114627;28;20130;-61
2022/06/08 01:56:44;;;;;;;108.22;102.30;;;9.70;99.90;;;;;;5116386;28;20131;-61
2022/06/08 01:59:26;;;;;;;170.25;161.52;;;9.70;99.90;;;;;;5115781;28;20173;-61
2022/06/08 02:01:56;;;;;;;145.02;137.88;;;9.70;99.90;;;;;;5115076;28;20040;-61
2022/06/08 02:04:40;;;;;;;150.25;142.55;;;9.70;99.90;;;;;;5116241;28;20508;-61
2022/06/08 02:07:23;;;;;;;158.73;150.75;;;9.70;99.90;;;;;;5115554;28;20511;-61
2022/06/08 02:10:07;;;;;;;173.57;164.67;;;9.70;99.90;;;;;;5115749;28;20056;-61
2022/06/08 02:12:38;;;;;;;155.32;147.38;;;9.70;99.90;;;;;;5115275;28;20340;-61
2022/06/08 02:15:16;;;;;;;153.50;145.93;;;9.70;99.90;;;;;;5114716;28;20111;-61
2022/06/08 02:17:52;;;;;;;156.35;148.80;;;9.70;99.90;;;;;;5115925;28;20047;-61
2022/06/08 02:20:46;;;;;;;181.07;171.10;;;9.60;99.90;;;;;;5116734;28;20104;-61
2022/06/08 02:23:24;;;;;;;127.05;120.40;;;9.60;99.90;;;;;;5114993;28;20050;-61
2022/06/08 02:25:57;;;;;;;113.55;107.60;;;9.60;99.90;;;;;;5115796;28;20124;-61
2022/06/08 02:28:33;;;;;;;114.88;109.35;;;9.60;99.90;;;;;;5097534;28;20497;-61
2022/06/08 02:31:10;;;;;;;154.85;146.45;;;9.60;99.90;;;;;;5115618;28;20055;-61
2022/06/08 02:36:31;;;;;;;116.38;110.63;;;9.60;99.90;;;;;;5115815;28;20051;-61
2022/06/08 02:39:09;;;;;;;150.73;143.00;;;9.60;99.90;;;;;;5116008;28;20092;-61
2022/06/08 02:41:37;;;;;;;155.63;148.23;;;9.60;99.90;;;;;;5115270;28;20083;-61
2022/06/08 02:44:12;;;;;;;152.52;145.25;;;9.50;99.90;;;;;;5096961;28;20096;-61
2022/06/08 02:46:53;;;;;;;187.73;178.65;;;9.50;99.90;;;;;;5089776;28;20048;-61
2022/06/08 02:49:24;;;;;;;130.07;123.95;;;9.40;99.90;;;;;;5094951;28;20058;-61
2022/06/08 02:51:56;;;;;;;141.18;134.25;;;9.40;99.90;;;;;;5093761;28;20115;-61
2022/06/08 02:54:26;;;;;;;137.93;131.38;;;9.30;99.90;;;;;;5096018;28;20042;-61
2022/06/08 02:56:56;;;;;;;154.45;147.18;;;9.30;99.90;;;;;;5114456;28;20167;-61
2022/06/08 02:59:38;;;;;;;160.27;152.32;;;9.30;99.90;;;;;;5115839;28;20044;-61
2022/06/08 03:02:29;;;;;;;146.70;139.80;;;9.30;99.90;;;;;;5114691;28;20044;-61
2022/06/08 03:05:11;;;;;;;115.65;110.03;;;9.30;99.90;;;;;;5100865;28;20364;-61
2022/06/08 03:07:54;;;;;;;124.97;119.13;;;9.30;99.90;;;;;;5094093;28;20113;-61
2022/06/08 03:10:21;;;;;;;120.38;114.65;;;9.30;99.90;;;;;;5094556;28;20044;-62
2022/06/08 03:12:52;;;;;;;117.75;112.13;;;9.30;99.90;;;;;;5088106;28;20532;-61
2022/06/08 03:15:23;;;;;;;116.60;110.65;;;9.30;99.90;;;;;;5114663;28;20082;-61
2022/06/08 03:17:50;;;;;;;111.95;106.20;;;9.30;99.90;;;;;;5113798;28;20205;-61
2022/06/08 03:20:20;;;;;;;131.52;124.85;;;9.30;99.90;;;;;;5097063;28;20048;-62
2022/06/08 03:22:52;;;;;;;128.70;122.05;;;9.40;99.90;;;;;;5106215;28;20075;-61
2022/06/08 03:25:30;;;;;;;130.20;123.43;;;9.40;99.90;;;;;;5092762;28;20536;-62
2022/06/08 03:27:56;;;;;;;165.13;156.88;;;9.40;99.90;;;;;;5110877;28;20036;-62
2022/06/08 03:30:24;;;;;;;170.32;161.88;;;9.50;99.90;;;;;;5108314;28;20390;-62
2022/06/08 03:32:50;;;;;;;172.00;163.50;;;9.60;99.90;;;;;;5112992;28;20050;-62
2022/06/08 03:35:17;;;;;;;184.13;174.98;;;9.60;99.90;;;;;;5113159;28;20035;-62
2022/06/08 03:37:44;;;;;;;153.00;145.23;;;9.70;99.90;;;;;;5096673;28;20048;-62
2022/06/08 03:40:13;;;;;;;155.05;147.30;;;9.80;99.90;;;;;;5094012;28;20093;-62
2022/06/08 03:42:39;;;;;;;128.75;122.18;;;9.80;99.90;;;;;;5115208;28;20058;-62
2022/06/08 03:45:05;;;;;;;148.00;140.68;;;9.80;99.90;;;;;;5135080;27;20055;-62
2022/06/08 03:47:38;;;;;;;158.00;150.02;;;9.90;99.90;;;;;;5134320;27;20043;-62
2022/06/08 03:50:08;;;;;;;144.23;136.65;;;9.90;99.90;;;;;;5116684;27;20398;-62
2022/06/08 03:52:38;;;;;;;152.90;145.10;;;9.90;99.90;;;;;;5099597;27;20043;-62
2022/06/08 03:55:07;;;;;;;156.70;148.70;;;9.90;99.90;;;;;;5134530;27;20035;-62
2022/06/08 03:57:34;;;;;;;152.85;145.32;;;9.90;99.90;;;;;;5134641;27;20147;-62
2022/06/08 04:00:06;;;;;;;143.40;136.32;;;10.00;99.90;;;;;;5098802;27;20050;-62
2022/06/08 04:02:46;;;;;;;146.38;139.13;;;10.00;99.90;;;;;;5133244;27;20436;-62
2022/06/08 04:05:14;;;;;;;144.65;137.60;;;9.90;99.90;;;;;;5116086;27;20035;-62
2022/06/08 04:07:40;;;;;;;152.18;144.13;;;10.00;99.90;;;;;;5098493;27;20054;-62
2022/06/08 04:10:08;;;;;;;170.73;161.18;;;10.00;99.90;;;;;;5116599;27;20039;-62
2022/06/08 04:12:34;;;;;;;160.48;152.23;;;10.10;99.90;;;;;;5134008;27;20552;-62
2022/06/08 04:15:00;;;;;;;190.70;180.60;;;10.20;99.90;;;;;;5115509;27;20111;-62
2022/06/08 04:17:26;;;;;;;203.15;192.65;;;10.20;99.90;;;;;;5116408;27;20092;-62
2022/06/08 04:19:53;;;;;;;212.85;201.93;;;10.30;99.90;;;;;;5116327;27;20118;-62
2022/06/08 04:22:21;;;;;;;202.65;191.98;;;10.30;99.90;;;;;;5115958;27;20041;-62
2022/06/08 04:24:48;;;;;;;209.32;197.77;;;10.40;99.90;;;;;;5113056;28;20051;-62
2022/06/08 04:27:15;;;;;;;215.65;204.15;;;10.40;99.90;;;;;;5098776;27;20043;-62
2022/06/08 04:29:44;;;;;;;168.05;159.13;;;10.50;99.90;;;;;;5098732;27;20142;-62
2022/06/08 04:32:10;;;;;;;191.38;180.88;;;10.60;99.90;;;;;;5134579;27;20747;-62
2022/06/08 04:34:38;;;;;;;220.77;209.02;;;10.70;99.90;;;;;;5116153;27;20039;-62
2022/06/08 04:37:05;;;;;;;193.77;183.05;;;10.70;99.90;;;;;;5115933;27;20047;-62
2022/06/08 04:39:38;;;;;;;;;;;10.80;99.90;;;;;;5116677;27;20043;-62
2022/06/08 04:42:04;;;;;;;101.32;95.57;;;10.90;99.90;;;;;;5094520;28;19942;-62
2022/06/08 04:44:36;;;;;;;116.80;110.38;;;10.90;99.90;;;;;;5095607;28;20047;-62
2022/06/08 04:47:06;;;;;;;141.82;134.05;;;11.00;99.90;;;;;;5112749;28;20043;-62
2022/06/08 04:49:33;;;;;;;166.30;157.25;;;11.00;99.90;;;;;;5111376;28;20035;-62
2022/06/08 04:51:59;;;;;;;188.95;179.15;;;11.10;99.90;;;;;;5095384;28;20051;-62
2022/06/08 04:54:25;;;;;;;183.05;173.43;;;11.20;99.90;;;;;;5112801;28;20039;-62
2022/06/08 04:56:51;;;;;;;168.50;159.60;;;11.20;99.90;;;;;;5094412;28;20054;-62
2022/06/08 04:59:18;;;;;;;243.27;230.25;;;11.30;99.90;;;;;;5112454;28;20106;-62
2022/06/08 05:01:51;;;;;;;320.55;300.42;;;11.40;99.90;;;;;;5115951;27;20058;-62
2022/06/08 05:04:16;;;;;;;221.98;209.98;;;11.50;99.90;;;;;;5114817;27;20051;-62
2022/06/08 05:06:45;;;;;;;262.30;246.60;;;11.70;99.90;;;;;;5115732;27;20054;-62
2022/06/08 05:09:11;;;;;;;301.23;284.27;;;11.90;99.90;;;;;;5115439;27;20039;-62
2022/06/08 05:11:41;;;;;;;213.70;202.57;;;12.10;99.90;;;;;;5112204;27;20051;-62
2022/06/08 05:14:08;;;;;;;275.52;260.05;;;12.40;99.90;;;;;;5112229;28;20048;-62
2022/06/08 05:16:34;;;;;;;205.10;194.27;;;12.60;99.90;;;;;;5095172;28;20049;-62
2022/06/08 05:19:02;;;;;;;208.57;197.32;;;12.80;99.90;;;;;;5111373;28;20038;-62
2022/06/08 05:21:28;;;;;;;225.73;213.68;;;12.90;99.90;;;;;;5111836;28;20507;-62
2022/06/08 05:23:55;;;;;;;275.45;261.15;;;13.00;99.90;;;;;;5112341;28;20039;-63
2022/06/08 05:26:32;;;;;;;220.13;208.98;;;13.10;99.90;;;;;;5114173;27;20515;-62
2022/06/08 05:28:58;;;;;;;258.27;244.40;;;13.20;99.90;;;;;;5115677;27;20039;-62
2022/06/08 05:31:24;;;;;;;186.88;177.07;;;13.30;99.90;;;;;;5114836;27;20047;-62
2022/06/08 05:33:52;;;;;;;288.55;272.10;;;13.40;99.90;;;;;;5114627;27;20489;-62
2022/06/08 05:36:20;;;;;;;231.07;218.68;;;13.50;99.90;;;;;;5115636;28;20054;-62
2022/06/08 05:38:49;;;;;;;284.25;268.08;;;13.50;99.90;;;;;;5114808;28;20046;-62
2022/06/08 05:41:17;;;;;;;169.32;160.38;;;13.60;99.90;;;;;;5114738;27;20084;-62
2022/06/08 05:43:43;;;;;;;183.73;174.52;;;13.70;99.90;;;;;;5114363;28;20082;-63
2022/06/08 05:46:10;;;;;;;238.40;225.35;;;13.70;99.90;;;;;;5114018;28;20393;-62
2022/06/08 05:48:39;;;;;;;210.10;198.43;;;13.80;99.90;;;;;;5114664;28;20367;-63
2022/06/08 05:51:07;;;;;;;172.05;163.30;;;13.80;99.90;;;;;;5097790;28;20043;-62
2022/06/08 05:53:33;;;;;;;242.38;229.38;;;13.90;99.90;;;;;;5113783;28;20035;-62
2022/06/08 05:55:59;;;;;;;192.85;182.95;;;13.90;99.90;;;;;;5114587;28;20050;-62
2022/06/08 05:58:27;;;;;;;189.05;179.50;;;14.00;99.90;;;;;;5114779;28;20050;-63
2022/06/08 06:00:55;;;;;;;176.55;167.10;;;14.00;99.90;;;;;;5096842;28;20047;-62
2022/06/08 06:03:22;;;;;;;211.48;200.20;;;13.90;99.90;;;;;;5097376;28;20075;-62
2022/06/08 06:05:50;;;;;;;186.10;176.65;;;14.00;99.90;;;;;;5098082;28;20051;-62
2022/06/08 06:08:17;;;;;;;166.68;157.70;;;14.00;99.90;;;;;;5097515;28;20139;-62
2022/06/08 06:10:50;;;;;;;181.98;172.13;;;;;;;;;;5133037;28;20043;-62
2022/06/08 06:13:24;;;;;;;161.95;152.88;;;14.10;99.90;;;;;;5114769;28;20057;-62
2022/06/08 06:15:55;;;;;;;154.38;146.13;;;14.20;99.90;;;;;;5097547;28;20553;-62
2022/06/08 06:18:21;;;;;;;179.48;169.98;;;14.40;99.90;;;;;;5114560;28;20070;-62
2022/06/08 06:20:58;;;;;;;175.57;166.27;;;14.50;99.90;;;;;;5114116;28;20278;-62
2022/06/08 06:23:30;;;;;;;134.70;127.03;;;14.70;99.90;;;;;;5114947;28;20392;-62
2022/06/08 06:26:01;;;;;;;146.57;138.52;;;14.70;99.90;;;;;;5114399;28;20039;-62
2022/06/08 06:28:57;;;;;;;179.10;169.05;;;14.80;99.90;;;;;;5110423;28;20048;-62
2022/06/08 06:31:43;;;;;;;161.75;152.38;;;14.80;99.90;;;;;;5112227;28;20066;-62
2022/06/08 06:34:15;;;;;;;154.27;146.25;;;14.90;99.90;;;;;;5115717;27;20562;-62
2022/06/08 06:36:41;;;;;;;169.35;160.10;;;14.90;99.90;;;;;;5113240;28;20104;-62
2022/06/08 06:39:08;;;;;;;142.43;135.02;;;15.00;99.90;;;;;;5116350;28;20052;-62
2022/06/08 06:41:38;;;;;;;133.82;126.95;;;15.10;99.90;;;;;;5099994;27;20043;-62
2022/06/08 06:44:05;;;;;;;151.23;143.13;;;15.20;99.90;;;;;;5100689;27;20054;-62
2022/06/08 06:46:36;;;;;;;137.77;130.35;;;15.30;99.90;;;;;;5115564;27;20075;-62
2022/06/08 06:49:07;;;;;;;125.50;118.47;;;15.50;99.90;;;;;;5116849;27;20039;-62
2022/06/08 06:51:34;;;;;;;212.10;200.98;;;15.60;99.90;;;;;;5117900;27;20103;-62
2022/06/08 06:54:02;;;;;;;143.57;136.05;;;;;;;;;;5114470;28;20043;-62
2022/06/08 06:56:27;;;;;;;149.48;141.73;;;15.80;99.90;;;;;;5114168;28;20035;-63
2022/06/08 06:58:59;;;;;;;160.15;151.55;;;15.80;99.90;;;;;;5098201;28;20075;-63
2022/06/08 07:01:27;;;;;;;145.32;138.18;;;15.90;99.90;;;;;;5118119;27;20051;-63
2022/06/08 07:03:53;;;;;;;149.13;141.10;;;15.90;99.90;;;;;;5113285;28;20505;-62
2022/06/08 07:06:19;;;;;;;142.20;134.70;;;15.90;99.90;;;;;;5114730;28;20082;-63
2022/06/08 07:08:46;;;;;;;159.95;151.25;;;16.00;99.90;;;;;;5114572;28;20055;-63
2022/06/08 07:14:03;;;;;;;120.78;113.57;;;16.20;99.90;;;;;;5118024;27;20039;-62
2022/06/08 07:16:30;;;;;;;132.07;125.28;;;16.50;99.90;;;;;;5101097;27;20401;-62
2022/06/08 07:18:56;;;;;;;213.38;202.95;;;16.70;99.90;;;;;;5117058;27;20043;-63
2022/06/08 07:21:22;;;;;;;261.83;246.80;;;16.90;99.90;;;;;;5135978;27;20053;-62
2022/06/08 07:23:48;;;;;;;181.75;171.93;;;17.20;99.90;;;;;;5117716;27;20043;-63
2022/06/08 07:26:14;;;;;;;234.77;222.70;;;17.20;99.90;;;;;;5131088;27;20171;-63
2022/06/08 07:28:40;;;;;;;178.27;169.48;;;17.40;99.90;;;;;;5135937;27;20466;-63
2022/06/08 07:31:07;;;;;;;208.68;198.35;;;17.60;99.90;;;;;;5134037;27;20047;-63
2022/06/08 07:33:34;;;;;;;271.52;258.05;;;17.60;99.90;;;;;;5135334;27;20851;-63
2022/06/08 07:36:01;;;;;;;475.42;446.23;;;17.70;99.90;;;;;;5117571;27;20460;-63
2022/06/08 07:38:26;;;;;;;307.40;291.27;;;17.80;99.90;;;;;;5134012;27;20067;-63
2022/06/08 07:40:52;;;;;;;250.02;237.32;;;18.00;99.90;;;;;;5135382;27;20043;-63
2022/06/08 07:43:19;;;;;;;278.20;264.50;;;18.20;99.90;;;;;;5133835;27;20107;-63
2022/06/08 07:45:45;;;;;;;317.70;301.45;;;18.40;99.90;;;;;;5116678;27;20049;-63
2022/06/08 07:50:56;;;;;;;308.90;292.17;;;18.80;99.90;;;;;;5135420;27;20035;-63
2022/06/08 07:53:22;;;;;;;451.42;425.52;;;18.80;99.90;;;;;;5116141;27;20043;-63
2022/06/08 07:55:48;;;;;;;494.25;463.77;;;18.70;99.90;;;;;;5112756;28;20477;-63
2022/06/08 07:58:14;;;;;;;368.38;349.95;;;18.70;99.90;;;;;;5115183;28;20460;-63
2022/06/08 08:00:46;;;;;;;404.98;383.10;;;18.80;99.90;;;;;;5114409;28;20123;-63
2022/06/08 08:03:14;;;;;;;418.48;396.08;;;18.80;99.90;;;;;;5132732;27;20047;-63
2022/06/08 08:05:41;;;;;;;380.33;360.58;;;18.90;99.90;;;;;;5134988;27;20481;-63
2022/06/08 08:08:07;;;;;;;373.02;354.50;;;19.00;99.90;;;;;;5115370;27;20058;-63
2022/06/08 08:10:32;;;;;;;332.17;315.40;;;19.30;99.90;;;;;;5134647;27;20053;-63
2022/06/08 08:12:59;;;;;;;370.27;351.30;;;19.40;99.90;;;;;;5116262;27;20055;-63
2022/06/08 08:15:26;;;;;;;299.50;284.65;;;19.40;99.90;;;;;;5133997;27;20035;-62
2022/06/08 08:17:53;;;;;;;469.30;442.90;;;19.30;99.90;;;;;;5131853;27;20121;-63
2022/06/08 08:20:19;;;;;;;590.30;553.63;;;19.10;99.90;;;;;;5133603;27;20043;-63
2022/06/08 08:22:46;;;;;;;505.05;476.10;;;18.90;99.90;;;;;;5114081;27;20052;-63
2022/06/08 08:25:15;;;;;;;490.00;463.23;;;18.90;99.90;;;;;;5115944;27;20130;-63
2022/06/08 08:27:42;;;;;;;503.02;473.33;;;19.00;99.90;;;;;;5134074;27;20094;-63
2022/06/08 08:30:10;;;;;;;323.95;306.75;;;19.20;99.90;;;;;;5116216;27;20039;-63
2022/06/08 08:32:36;;;;;;;342.88;325.92;;;19.40;99.90;;;;;;5097188;27;20062;-63
2022/06/08 08:35:03;;;;;;;427.42;404.60;;;19.40;99.90;;;;;;5133576;27;20038;-63
2022/06/08 08:37:30;;;;;;;409.33;387.38;;;19.40;99.90;;;;;;5134149;27;20047;-63
2022/06/08 08:39:56;;;;;;;418.42;395.33;;;19.60;99.90;;;;;;5115108;27;20055;-63
2022/06/08 08:42:23;;;;;;;300.23;285.00;;;19.70;99.90;;;;;;5133368;27;20047;-63
2022/06/08 08:44:56;;;;;;;380.55;360.23;;;19.90;99.90;;;;;;5134267;27;20059;-63
2022/06/08 08:47:35;;;;;;;301.48;287.63;;;20.00;99.90;;;;;;5098810;27;20082;-63
2022/06/08 08:50:24;;;;;;;413.27;390.85;;;20.10;99.90;;;;;;5132985;27;20035;-63
2022/06/08 08:53:07;;;;;;;429.02;405.38;;;20.10;99.90;;;;;;5099099;27;20054;-63
2022/06/08 08:55:40;;;;;;;249.90;238.63;;;20.20;99.90;;;;;;5132503;27;20154;-63
2022/06/08 08:58:07;;;;;;;;;;;20.30;99.90;;;;;;5133664;27;20047;-63
2022/06/08 09:00:47;;;;;;;228.80;218.60;;;20.40;99.90;;;;;;5133792;27;20435;-63
2022/06/08 09:03:21;;;;;;;220.05;210.38;;;20.60;99.90;;;;;;5114773;27;20055;-63
2022/06/08 09:05:51;;;;;;;209.32;200.27;;;20.70;99.90;;;;;;5114931;27;20123;-63
2022/06/08 09:08:19;;;;;;;284.17;271.00;;;20.80;99.90;;;;;;5133076;27;20059;-63
2022/06/08 09:10:46;;;;;;;221.00;211.43;;;20.90;99.90;;;;;;5133295;27;20049;-63
2022/06/08 09:13:20;;;;;;;313.80;298.33;;;21.00;99.90;;;;;;5100875;27;20050;-63
2022/06/08 09:15:51;;;;;;;296.67;282.60;;;21.10;99.90;;;;;;5097683;27;20043;-63
2022/06/08 09:18:29;;;;;;;262.35;250.63;;;21.30;99.90;;;;;;5130830;27;20050;-63
2022/06/08 09:20:55;;;;;;;362.35;345.05;;;21.40;99.90;;;;;;5133971;27;20074;-63
2022/06/08 09:23:37;;;;;;;355.00;338.77;;;21.60;99.90;;;;;;5133680;27;20089;-63
2022/06/08 09:26:12;;;;;;;495.55;468.08;;;21.50;99.90;;;;;;5133476;27;20122;-63
2022/06/08 09:28:39;;;;;;;492.60;466.58;;;21.10;99.90;;;;;;5133708;27;20418;-63
2022/06/08 09:31:05;;;;;;;670.95;628.97;;;20.30;99.90;;;;;;5114372;27;20547;-63
2022/06/08 09:33:38;;;;;;;789.20;735.35;;;19.80;99.90;;;;;;5133222;27;20057;-63
2022/06/08 09:36:24;;;;;;;743.42;695.30;;;19.40;99.90;;;;;;5115743;28;20062;-62
2022/06/08 09:38:51;;;;;;;612.55;575.72;;;19.40;99.90;;;;;;5132729;27;20458;-63
2022/06/08 09:41:24;;;;;;;666.72;622.95;;;19.60;99.90;;;;;;5133672;27;20054;-63
2022/06/08 09:43:56;;;;;;;506.50;477.55;;;19.90;99.90;;;;;;5128086;27;20074;-63
2022/06/08 09:52:45;;;;;;;405.20;385.13;;;20.70;99.90;;;;;;5131049;28;20077;-63
2022/06/08 09:55:25;;;;;;;462.27;438.35;;;20.60;99.90;;;;;;5132144;28;20039;-63
2022/06/08 09:58:01;;;;;;;395.60;376.63;;;20.70;99.90;;;;;;5132916;28;20055;-63
2022/06/08 10:00:41;;;;;;;391.95;372.85;;;20.90;99.90;;;;;;5130899;28;20051;-63
2022/06/08 10:03:19;;;;;;;405.55;385.20;;;21.10;99.90;;;;;;5111605;28;20051;-63
2022/06/08 10:05:59;;;;;;;418.50;397.27;;;21.20;99.90;;;;;;5111095;28;20048;-63
2022/06/08 10:08:33;;;;;;;605.95;570.47;;;21.40;99.90;;;;;;5118549;27;20505;-63
2022/06/08 10:11:36;;;;;;;504.67;476.95;;;21.70;99.90;;;;;;5137325;27;20047;-63
2022/06/08 10:14:26;;;;;;;401.60;381.38;;;21.50;99.90;;;;;;5118980;27;20051;-63
2022/06/08 10:16:59;;;;;;;376.63;358.95;;;21.40;99.90;;;;;;5119293;27;20126;-63
2022/06/08 10:19:33;;;;;;;395.67;376.60;;;21.50;99.90;;;;;;5137398;27;20053;-63
2022/06/08 10:22:01;;;;;;;409.00;389.13;;;22.00;99.90;;;;;;5136461;27;20035;-63
2022/06/08 10:24:47;;;;;;;424.55;402.52;;;22.30;99.90;;;;;;5137425;27;20464;-63
2022/06/08 10:27:20;;;;;;;582.05;547.38;;;22.50;99.90;;;;;;5136289;27;20043;-63
2022/06/08 10:30:07;;;;;;;537.55;506.98;;;22.10;99.90;;;;;;5137108;27;20047;-63
2022/06/08 10:32:44;;;;;;;561.40;527.85;;;21.80;99.90;;;;;;5101659;27;20107;-63
2022/06/08 10:35:21;;;;;;;386.27;367.67;;;22.00;99.90;;;;;;5116075;27;20092;-63
2022/06/08 10:37:48;;;;;;;447.38;425.35;;;22.50;99.90;;;;;;5134929;27;20047;-63
2022/06/08 10:40:20;;;;;;;417.45;397.02;;;22.90;99.90;;;;;;5137259;27;20035;-63
2022/06/08 10:42:48;;;;;;;431.10;410.23;;;23.30;99.90;;;;;;5117756;27;20047;-63
2022/06/08 10:45:22;;;;;;;434.50;412.52;;;23.50;99.90;;;;;;5114443;28;20043;-63
2022/06/08 10:47:58;;;;;;;404.02;384.55;;;23.50;99.90;;;;;;5114303;28;20390;-63
2022/06/08 10:50:37;;;;;;;401.65;382.30;;;23.60;99.90;;;;;;5116262;28;20067;-63
2022/06/08 10:56:23;;;;;;;356.73;340.25;;;22.90;99.90;;;;;;5135949;27;20550;-63
2022/06/08 10:59:03;;;;;;;492.42;467.23;;;23.00;99.90;;;;;;5136531;27;20047;-63
2022/06/08 11:01:36;;;;;;;463.60;439.52;;;23.30;99.90;;;;;;5136431;27;20047;-63
2022/06/08 11:04:07;;;;;;;437.38;415.90;;;23.30;99.90;;;;;;5135905;27;20114;-63
2022/06/08 11:06:55;;;;;;;404.92;385.58;;;23.30;99.90;;;;;;5136264;27;20112;-63
2022/06/08 11:09:33;;;;;;;548.95;516.95;;;23.10;99.90;;;;;;5135720;27;20115;-63
2022/06/08 11:12:16;;;;;;;446.83;424.08;;;23.10;99.90;;;;;;5117258;27;20054;-63
2022/06/08 11:14:44;;;;;;;424.33;402.52;;;23.50;99.90;;;;;;5136093;27;20090;-63
2022/06/08 11:17:27;;;;;;;483.80;459.38;;;24.00;99.90;;;;;;5117164;27;20092;-63
2022/06/08 11:19:56;;;;;;;;;;;24.30;99.90;;;;;;5113613;28;20490;-63
2022/06/08 11:22:26;;;;;;;574.97;543.47;;;24.70;99.90;;;;;;5115722;28;19951;-63
2022/06/08 11:24:55;;;;;;;543.65;514.78;;;25.20;99.90;;;;;;5115110;28;20044;-63
2022/06/08 11:27:31;;;;;;;638.47;596.90;;;25.60;99.60;;;;;;5127989;27;20043;-64
2022/06/08 11:30:02;;;;;;;523.90;496.30;;;25.90;98.90;;;;;;5113641;28;20422;-63
2022/06/08 11:32:42;;;;;;;510.50;483.63;;;26.00;98.90;;;;;;5115646;28;20050;-63
2022/06/08 11:35:21;;;;;;;541.53;511.48;;;25.90;98.60;;;;;;5115702;28;20055;-63
2022/06/08 11:38:13;;;;;;;441.27;418.52;;;25.70;98.10;;;;;;5123969;27;20072;-63
2022/06/08 11:40:39;;;;;;;327.70;312.88;;;25.20;98.00;;;;;;5136146;27;20063;-63
2022/06/08 11:43:12;;;;;;;390.80;372.38;;;24.90;99.40;;;;;;5135845;27;20114;-63
2022/06/08 11:45:44;;;;;;;470.45;446.15;;;24.70;99.00;;;;;;5134611;27;20103;-63
2022/06/08 11:48:12;;;;;;;;;;;24.70;98.90;;;;;;5136263;27;20046;-63
2022/06/08 11:50:45;;;;;;;552.67;523.15;;;24.60;99.30;;;;;;5135732;27;19972;-63
2022/06/08 11:53:37;;;;;;;485.27;459.50;;;24.30;99.30;;;;;;5116598;27;20103;-62
2022/06/08 11:56:29;;;;;;;482.35;457.48;;;23.90;99.70;;;;;;5135339;27;20067;-63
2022/06/08 11:58:58;;;;;;;544.75;515.03;;;23.70;99.90;;;;;;5134741;27;20149;-63
2022/06/08 12:01:30;;;;;;;581.97;548.83;;;23.40;99.90;;;;;;5128436;27;20386;-63
2022/06/08 12:04:01;;;;;;;515.40;488.10;;;23.40;99.90;;;;;;5112231;28;20040;-62
2022/06/08 12:06:34;;;;;;;534.50;505.42;;;23.40;99.90;;;;;;5122713;27;20047;-62
2022/06/08 12:09:06;;;;;;;525.53;497.15;;;23.40;99.90;;;;;;5114475;28;20089;-63
2022/06/08 12:11:34;;;;;;;615.58;578.28;;;23.30;99.90;;;;;;5116082;27;20108;-63
2022/06/08 12:14:14;;;;;;;444.92;422.88;;;23.20;99.90;;;;;;5116903;27;20062;-63
2022/06/08 12:16:52;;;;;;;475.67;451.73;;;23.40;99.90;;;;;;5114514;28;20505;-63
2022/06/08 12:19:20;;;;;;;497.58;472.27;;;23.50;99.90;;;;;;5113522;28;20048;-63
2022/06/08 12:21:49;;;;;;;426.20;405.55;;;23.80;99.90;;;;;;5122564;27;20055;-63
2022/06/08 12:24:16;;;;;;;547.65;517.85;;;24.00;99.50;;;;;;5114168;27;20092;-63
2022/06/08 12:26:56;;;;;;;516.88;489.67;;;24.10;99.90;;;;;;5101123;27;20051;-63
2022/06/08 12:29:32;;;;;;;451.00;428.45;;;24.30;99.90;;;;;;5133896;27;20133;-63
2022/06/08 12:32:00;;;;;;;532.22;503.90;;;24.30;99.50;;;;;;5134208;27;20459;-64
2022/06/08 12:34:41;;;;;;;499.25;473.40;;;24.20;99.20;;;;;;5133861;27;20507;-63
2022/06/08 12:37:23;;;;;;;526.90;498.70;;;24.40;99.90;;;;;;5128468;27;20127;-63
2022/06/08 12:39:49;;;;;;;;;;;24.60;99.20;;;;;;5131237;27;20051;-63
2022/06/08 12:42:25;;;;;;;513.75;486.90;;;24.80;98.40;;;;;;5133641;27;20023;-63
2022/06/08 12:44:53;;;;;;;477.10;452.48;;;24.80;98.10;;;;;;5104768;27;20126;-63
2022/06/08 12:47:20;;;;;;;511.95;485.20;;;24.50;99.00;;;;;;5111496;28;20093;-63
2022/06/08 12:50:10;;;;;;;502.98;476.73;;;24.00;99.20;;;;;;5125844;27;20046;-63
2022/06/08 12:52:36;;;;;;;476.08;451.27;;;23.60;99.90;;;;;;5131758;27;20389;-63
2022/06/08 12:55:17;;;;;;;466.60;443.25;;;23.20;99.90;;;;;;5114767;27;20047;-63